Time,TemperatureF,DewpointF,PressureIn,WindDirection,WindDirectionDegrees,WindSpeedMPH,WindSpeedGustMPH,Humidity,HourlyPrecipIn,Conditions,Clouds,dailyrainin,SoftwareType,DateUTC
2013-05-26 00:00:00,55.0,37.7,30.29,North,360,0.0,0.0,52,0.00,,---,0.00,VWS V14.01,2013-05-26 04:00:00,
2013-05-26 00:01:00,55.1,37.8,30.29,North,360,0.0,0.0,52,0.00,,---,0.00,VWS V14.01,2013-05-26 04:01:00,
2013-05-26 00:07:00,55.0,37.7,30.29,North,360,0.0,0.0,52,0.00,,---,0.00,VWS V14.01,2013-05-26 04:07:00,
2013-05-26 00:12:00,54.6,38.3,30.29,North,360,0.0,0.0,54,0.00,,---,0.00,VWS V14.01,2013-05-26 04:12:00,
2013-05-26 00:17:00,54.3,38.5,30.29,North,360,0.0,0.0,55,0.00,,---,0.00,VWS V14.01,2013-05-26 04:17:00,
2013-05-26 00:22:00,53.9,38.6,30.29,North,360,0.0,0.0,56,0.00,,---,0.00,VWS V14.01,2013-05-26 04:22:00,
2013-05-26 00:27:00,53.6,38.3,30.30,North,360,0.0,0.0,56,0.00,,---,0.00,VWS V14.01,2013-05-26 04:27:00,
2013-05-26 00:30:00,53.5,38.2,30.30,North,360,0.0,0.0,56,0.00,,---,0.00,VWS V14.01,2013-05-26 04:30:00,
2013-05-26 00:32:00,53.4,39.0,30.29,North,360,0.0,0.0,58,0.00,,---,0.00,VWS V14.01,2013-05-26 04:32:00,
2013-05-26 00:37:00,53.1,38.7,30.29,North,360,0.0,0.0,58,0.00,,---,0.00,VWS V14.01,2013-05-26 04:37:00,
2013-05-26 00:42:00,52.8,38.9,30.29,North,360,0.0,0.0,59,0.00,,---,0.00,VWS V14.01,2013-05-26 04:42:00,
2013-05-26 00:47:00,52.3,40.1,30.29,North,360,0.0,0.0,63,0.00,,---,0.00,VWS V14.01,2013-05-26 04:47:00,
2013-05-26 00:52:00,51.8,39.6,30.29,North,360,0.0,0.0,63,0.00,,---,0.00,VWS V14.01,2013-05-26 04:52:00,
2013-05-26 00:57:00,51.4,39.2,30.29,North,360,0.0,0.0,63,0.00,,---,0.00,VWS V14.01,2013-05-26 04:57:00,
2013-05-26 01:00:00,51.3,39.2,30.30,North,360,0.0,0.0,63,0.00,,---,0.00,VWS V14.01,2013-05-26 05:00:00,
2013-05-26 01:02:00,51.2,39.0,30.30,North,360,0.0,0.0,63,0.00,,---,0.00,VWS V14.01,2013-05-26 05:02:00,
2013-05-26 01:07:00,51.2,40.6,30.30,North,360,0.0,0.0,67,0.00,,---,0.00,VWS V14.01,2013-05-26 05:07:00,
2013-05-26 01:11:00,51.2,40.6,30.30,North,360,0.0,0.0,67,0.00,,---,0.00,VWS V14.01,2013-05-26 05:11:00,
2013-05-26 01:16:00,51.0,41.2,30.29,North,360,0.0,0.0,69,0.00,,---,0.00,VWS V14.01,2013-05-26 05:16:00,
2013-05-26 01:21:00,50.6,41.6,30.29,NNW,346,0.0,0.0,71,0.00,,---,0.00,VWS V14.01,2013-05-26 05:21:00,
2013-05-26 01:26:00,49.9,41.2,30.29,NW,312,0.0,0.0,72,0.00,,---,0.00,VWS V14.01,2013-05-26 05:26:00,
2013-05-26 01:30:00,49.7,41.0,30.28,NW,312,0.0,0.0,72,0.00,,---,0.00,VWS V14.01,2013-05-26 05:30:00,
2013-05-26 01:31:00,49.6,41.0,30.28,NW,312,0.0,0.0,72,0.00,,---,0.00,VWS V14.01,2013-05-26 05:31:00,
2013-05-26 01:36:00,49.8,40.0,30.28,NW,308,0.0,0.0,69,0.00,,---,0.00,VWS V14.01,2013-05-26 05:36:00,
2013-05-26 01:41:00,50.5,40.0,30.28,NW,304,0.0,0.0,67,0.00,,---,0.00,VWS V14.01,2013-05-26 05:41:00,
2013-05-26 01:46:00,51.2,40.2,30.28,WNW,302,0.0,0.0,66,0.00,,---,0.00,VWS V14.01,2013-05-26 05:46:00,
2013-05-26 01:51:00,51.5,41.3,30.28,NNW,330,0.0,0.0,68,0.00,,---,0.00,VWS V14.01,2013-05-26 05:51:00,
2013-05-26 01:56:00,51.5,40.5,30.28,NNW,330,0.0,0.0,66,0.00,,---,0.00,VWS V14.01,2013-05-26 05:56:00,
2013-05-26 02:00:00,51.6,40.2,30.28,NNW,330,0.0,0.0,65,0.00,,---,0.00,VWS V14.01,2013-05-26 06:00:00,
2013-05-26 02:01:00,51.7,40.3,30.28,NNW,330,0.0,0.0,65,0.00,,---,0.00,VWS V14.01,2013-05-26 06:01:00,
2013-05-26 02:06:00,51.7,40.7,30.27,NNW,330,0.0,0.0,66,0.00,,---,0.00,VWS V14.01,2013-05-26 06:06:00,
2013-05-26 02:11:00,51.5,40.9,30.27,NW,325,0.0,0.0,67,0.00,,---,0.00,VWS V14.01,2013-05-26 06:11:00,
2013-05-26 02:16:00,51.1,41.3,30.27,NW,321,0.0,0.0,69,0.00,,---,0.00,VWS V14.01,2013-05-26 06:16:00,
2013-05-26 02:21:00,50.9,40.0,30.27,NW,320,0.0,0.0,66,0.00,,---,0.00,VWS V14.01,2013-05-26 06:21:00,
2013-05-26 02:26:00,51.1,39.8,30.27,NW,311,0.0,0.0,65,0.00,,---,0.00,VWS V14.01,2013-05-26 06:26:00,
2013-05-26 02:30:00,51.2,39.8,30.27,NW,311,0.0,0.0,65,0.00,,---,0.00,VWS V14.01,2013-05-26 06:30:00,
2013-05-26 02:31:00,51.4,39.7,30.27,WNW,297,0.0,0.0,64,0.00,,---,0.00,VWS V14.01,2013-05-26 06:31:00,
2013-05-26 02:36:00,51.8,39.6,30.27,WNW,298,0.0,0.0,63,0.00,,---,0.00,VWS V14.01,2013-05-26 06:36:00,
2013-05-26 02:41:00,52.1,39.5,30.27,NW,325,0.0,0.0,62,0.00,,---,0.00,VWS V14.01,2013-05-26 06:41:00,
2013-05-26 02:46:00,52.2,40.4,30.27,NW,325,0.0,2.0,64,0.00,,---,0.00,VWS V14.01,2013-05-26 06:46:00,
2013-05-26 02:51:00,52.0,40.6,30.27,NW,325,0.0,2.0,65,0.00,,---,0.00,VWS V14.01,2013-05-26 06:51:00,
2013-05-26 02:56:00,51.7,39.9,30.27,NW,325,0.0,2.0,64,0.00,,---,0.00,VWS V14.01,2013-05-26 06:56:00,
2013-05-26 03:00:00,51.7,39.9,30.27,NW,325,0.0,2.0,64,0.00,,---,0.00,VWS V14.01,2013-05-26 07:00:00,
2013-05-26 03:01:00,51.5,40.5,30.27,NW,325,0.0,0.0,66,0.00,,---,0.00,VWS V14.01,2013-05-26 07:01:00,
2013-05-26 03:06:00,51.3,40.3,30.26,NW,325,0.0,0.0,66,0.00,,---,0.00,VWS V14.01,2013-05-26 07:06:00,
2013-05-26 03:11:00,51.0,40.1,30.26,NW,325,0.0,0.0,66,0.00,,---,0.00,VWS V14.01,2013-05-26 07:11:00,
2013-05-26 03:16:00,50.8,39.9,30.26,NW,325,0.0,0.0,66,0.00,,---,0.00,VWS V14.01,2013-05-26 07:16:00,
2013-05-26 03:21:00,50.8,40.6,30.25,NW,325,0.0,0.0,68,0.00,,---,0.00,VWS V14.01,2013-05-26 07:21:00,
2013-05-26 03:26:00,50.8,41.4,30.25,NW,325,0.0,0.0,70,0.00,,---,0.00,VWS V14.01,2013-05-26 07:26:00,
2013-05-26 03:30:00,50.7,42.0,30.25,NW,325,0.0,0.0,72,0.00,,---,0.00,VWS V14.01,2013-05-26 07:30:00,
2013-05-26 03:31:00,50.6,40.4,30.25,NW,325,0.0,0.0,68,0.00,,---,0.00,VWS V14.01,2013-05-26 07:31:00,
2013-05-26 03:36:00,50.7,40.5,30.25,NW,325,0.0,2.0,68,0.00,,---,0.00,VWS V14.01,2013-05-26 07:36:00,
2013-05-26 03:41:00,50.9,40.7,30.25,NW,325,2.0,2.0,68,0.00,,---,0.00,VWS V14.01,2013-05-26 07:41:00,
2013-05-26 03:46:00,51.0,41.2,30.25,NW,325,0.0,3.0,69,0.00,,---,0.00,VWS V14.01,2013-05-26 07:46:00,
2013-05-26 03:51:00,51.2,40.2,30.25,NW,325,0.0,3.0,66,0.00,,---,0.00,VWS V14.01,2013-05-26 07:51:00,
2013-05-26 03:56:00,51.3,42.2,30.25,NW,325,0.0,3.0,71,0.00,,---,0.00,VWS V14.01,2013-05-26 07:56:00,
2013-05-26 04:00:00,51.1,42.4,30.25,NW,325,0.0,3.0,72,0.00,,---,0.00,VWS V14.01,2013-05-26 08:00:00,
2013-05-26 04:01:00,50.9,42.2,30.25,NW,325,0.0,0.0,72,0.00,,---,0.00,VWS V14.01,2013-05-26 08:01:00,
2013-05-26 04:06:00,50.4,42.1,30.25,NW,325,0.0,0.0,73,0.00,,---,0.00,VWS V14.01,2013-05-26 08:06:00,
2013-05-26 04:11:00,50.0,42.4,30.25,NW,325,0.0,0.0,75,0.00,,---,0.00,VWS V14.01,2013-05-26 08:11:00,
2013-05-26 04:16:00,49.7,41.0,30.25,NNW,329,0.0,4.0,72,0.00,,---,0.00,VWS V14.01,2013-05-26 08:16:00,
2013-05-26 04:21:00,49.8,41.9,30.25,NNW,335,1.0,4.0,74,0.00,,---,0.00,VWS V14.01,2013-05-26 08:21:00,
2013-05-26 04:26:00,50.0,40.6,30.25,NW,318,0.0,8.0,70,0.00,,---,0.00,VWS V14.01,2013-05-26 08:26:00,
2013-05-26 04:30:00,50.3,40.9,30.25,NW,318,0.0,8.0,70,0.00,,---,0.00,VWS V14.01,2013-05-26 08:30:00,
2013-05-26 04:31:00,50.5,40.3,30.25,NW,318,0.0,2.0,68,0.00,,---,0.00,VWS V14.01,2013-05-26 08:31:00,
2013-05-26 04:36:00,51.0,41.2,30.25,NW,318,0.0,2.0,69,0.00,,---,0.00,VWS V14.01,2013-05-26 08:36:00,
2013-05-26 04:41:00,51.4,41.2,30.26,NW,318,0.0,2.0,68,0.00,,---,0.00,VWS V14.01,2013-05-26 08:41:00,
2013-05-26 04:46:00,51.7,41.9,30.26,NW,310,2.0,3.0,69,0.00,,---,0.00,VWS V14.01,2013-05-26 08:46:00,
2013-05-26 04:51:00,52.0,41.4,30.26,NW,326,0.0,3.0,67,0.00,,---,0.00,VWS V14.01,2013-05-26 08:51:00,
2013-05-26 04:56:00,52.3,42.1,30.26,NW,326,0.0,3.0,68,0.00,,---,0.00,VWS V14.01,2013-05-26 08:56:00,
2013-05-26 05:00:00,52.4,42.2,30.26,NW,326,0.0,3.0,68,0.00,,---,0.00,VWS V14.01,2013-05-26 09:00:00,
2013-05-26 05:01:00,52.4,42.2,30.27,SSW,209,0.0,4.0,68,0.00,,---,0.00,VWS V14.01,2013-05-26 09:01:00,
2013-05-26 05:06:00,52.6,42.3,30.26,SSW,209,0.0,4.0,68,0.00,,---,0.00,VWS V14.01,2013-05-26 09:06:00,
2013-05-26 05:11:00,52.7,40.9,30.26,SSW,209,0.0,4.0,64,0.00,,---,0.00,VWS V14.01,2013-05-26 09:11:00,
2013-05-26 05:16:00,52.9,43.0,30.26,SSW,209,0.0,4.0,69,0.00,,---,0.00,VWS V14.01,2013-05-26 09:16:00,
2013-05-26 05:21:00,52.8,42.9,30.26,SSW,209,0.0,4.0,69,0.00,,---,0.00,VWS V14.01,2013-05-26 09:21:00,
2013-05-26 05:26:00,52.6,42.7,30.26,SSW,209,0.0,4.0,69,0.00,,---,0.00,VWS V14.01,2013-05-26 09:26:00,
2013-05-26 05:30:00,52.5,42.6,30.26,SSW,209,0.0,4.0,69,0.00,,---,0.00,VWS V14.01,2013-05-26 09:30:00,
2013-05-26 05:31:00,52.5,42.3,30.26,SSW,209,0.0,0.0,68,0.00,,---,0.00,VWS V14.01,2013-05-26 09:31:00,
2013-05-26 05:36:00,52.4,43.7,30.26,SSW,209,0.0,0.0,72,0.00,,---,0.00,VWS V14.01,2013-05-26 09:36:00,
2013-05-26 05:41:00,52.3,43.5,30.26,SSW,209,0.0,0.0,72,0.00,,---,0.00,VWS V14.01,2013-05-26 09:41:00,
2013-05-26 05:46:00,52.1,43.4,30.26,SSW,209,0.0,0.0,72,0.00,,---,0.00,VWS V14.01,2013-05-26 09:46:00,
2013-05-26 05:51:00,51.9,41.7,30.26,SSW,209,0.0,0.0,68,0.00,,---,0.00,VWS V14.01,2013-05-26 09:51:00,
2013-05-26 05:56:00,51.9,43.2,30.26,SSW,209,0.0,0.0,72,0.00,,---,0.00,VWS V14.01,2013-05-26 09:56:00,
2013-05-26 06:00:00,52.0,44.0,30.27,SSW,209,0.0,0.0,74,0.00,,---,0.00,VWS V14.01,2013-05-26 10:00:00,
2013-05-26 06:01:00,51.9,43.2,30.27,SSW,209,0.0,0.0,72,0.00,,---,0.00,VWS V14.01,2013-05-26 10:01:00,
2013-05-26 06:06:00,52.1,44.1,30.27,SSW,209,0.0,0.0,74,0.00,,---,0.00,VWS V14.01,2013-05-26 10:06:00,
2013-05-26 06:11:00,52.1,45.1,30.27,SSW,209,0.0,0.0,77,0.00,,---,0.00,VWS V14.01,2013-05-26 10:11:00,
2013-05-26 06:16:00,52.0,43.6,30.28,SSW,209,0.0,0.0,73,0.00,,---,0.00,VWS V14.01,2013-05-26 10:16:00,
2013-05-26 06:21:00,52.1,44.1,30.28,SSW,209,0.0,0.0,74,0.00,,---,0.00,VWS V14.01,2013-05-26 10:21:00,
2013-05-26 06:26:00,52.2,41.6,30.28,SSW,209,0.0,0.0,67,0.00,,---,0.00,VWS V14.01,2013-05-26 10:26:00,
2013-05-26 06:30:00,52.3,43.9,30.28,SSW,209,0.0,0.0,73,0.00,,---,0.00,VWS V14.01,2013-05-26 10:30:00,
2013-05-26 06:31:00,52.3,43.5,30.28,SSW,209,0.0,0.0,72,0.00,,---,0.00,VWS V14.01,2013-05-26 10:31:00,
2013-05-26 06:36:00,52.5,44.1,30.28,SSW,209,0.0,0.0,73,0.00,,---,0.00,VWS V14.01,2013-05-26 10:36:00,
2013-05-26 06:41:00,52.6,44.9,30.28,SSW,209,0.0,0.0,75,0.00,,---,0.00,VWS V14.01,2013-05-26 10:41:00,
2013-05-26 06:46:00,52.7,46.0,30.29,SSW,209,0.0,0.0,78,0.00,,---,0.00,VWS V14.01,2013-05-26 10:46:00,
2013-05-26 06:51:00,52.6,45.3,30.29,SSW,209,0.0,0.0,76,0.00,,---,0.00,VWS V14.01,2013-05-26 10:51:00,
2013-05-26 06:56:00,52.6,45.3,30.29,SSW,209,0.0,0.0,76,0.00,,---,0.00,VWS V14.01,2013-05-26 10:56:00,
2013-05-26 07:00:00,52.7,46.7,30.30,SSW,209,0.0,0.0,80,0.00,,---,0.00,VWS V14.01,2013-05-26 11:00:00,
2013-05-26 07:01:00,52.7,46.4,30.30,SSW,209,0.0,1.0,79,0.00,,---,0.00,VWS V14.01,2013-05-26 11:01:00,
2013-05-26 07:06:00,52.7,45.7,30.29,SSW,209,0.0,1.0,77,0.00,,---,0.00,VWS V14.01,2013-05-26 11:06:00,
2013-05-26 07:11:00,52.8,46.1,30.29,SSW,209,0.0,1.0,78,0.00,,---,0.00,VWS V14.01,2013-05-26 11:11:00,
2013-05-26 07:16:00,53.2,46.5,30.29,SSW,209,0.0,1.0,78,0.00,,---,0.00,VWS V14.01,2013-05-26 11:16:00,
2013-05-26 07:21:00,53.6,44.8,30.29,SSW,209,0.0,1.0,72,0.00,,---,0.00,VWS V14.01,2013-05-26 11:21:00,
2013-05-26 07:26:00,54.1,46.0,30.30,SSW,209,0.0,1.0,74,0.00,,---,0.00,VWS V14.01,2013-05-26 11:26:00,
2013-05-26 07:30:00,54.3,46.2,30.29,SSW,209,0.0,1.0,74,0.00,,---,0.00,VWS V14.01,2013-05-26 11:30:00,
2013-05-26 07:31:00,54.5,46.8,30.29,SSW,209,0.0,0.0,75,0.00,,---,0.00,VWS V14.01,2013-05-26 11:31:00,
2013-05-26 07:36:00,54.8,46.3,30.29,SSW,209,0.0,0.0,73,0.00,,---,0.00,VWS V14.01,2013-05-26 11:36:00,
2013-05-26 07:41:00,55.1,46.6,30.29,SSW,209,0.0,0.0,73,0.00,,---,0.00,VWS V14.01,2013-05-26 11:41:00,
2013-05-26 07:46:00,55.6,46.4,30.29,SSW,209,0.0,0.0,71,0.00,,---,0.00,VWS V14.01,2013-05-26 11:46:00,
2013-05-26 07:51:00,56.0,45.6,30.29,SSW,209,0.0,0.0,68,0.00,,---,0.00,VWS V14.01,2013-05-26 11:51:00,
2013-05-26 07:56:00,56.4,46.0,30.29,SSW,209,0.0,0.0,68,0.00,,---,0.00,VWS V14.01,2013-05-26 11:56:00,
2013-05-26 08:00:00,56.6,46.2,30.29,SSW,209,0.0,0.0,68,0.00,,---,0.00,VWS V14.01,2013-05-26 12:00:00,
2013-05-26 08:01:00,56.9,46.5,30.29,SSW,209,0.0,0.0,68,0.00,,---,0.00,VWS V14.01,2013-05-26 12:01:00,
2013-05-26 08:06:00,57.3,47.2,30.29,SSW,196,0.0,2.0,69,0.00,,---,0.00,VWS V14.01,2013-05-26 12:06:00,
2013-05-26 08:11:00,57.7,48.0,30.29,SSW,194,0.0,2.0,70,0.00,,---,0.00,VWS V14.01,2013-05-26 12:11:00,
2013-05-26 08:16:00,57.9,47.0,30.29,SSW,194,0.0,2.0,67,0.00,,---,0.00,VWS V14.01,2013-05-26 12:16:00,
2013-05-26 08:21:00,58.5,47.2,30.29,SSW,194,0.0,2.0,66,0.00,,---,0.00,VWS V14.01,2013-05-26 12:21:00,
2013-05-26 08:26:00,59.2,44.9,30.30,West,273,4.0,4.0,59,0.00,,---,0.00,VWS V14.01,2013-05-26 12:26:00,
2013-05-26 08:30:00,59.4,43.7,30.30,West,276,0.0,4.0,56,0.00,,---,0.00,VWS V14.01,2013-05-26 12:30:00,
2013-05-26 08:31:00,59.5,42.4,30.30,NW,315,0.0,5.0,53,0.00,,---,0.00,VWS V14.01,2013-05-26 12:31:00,
2013-05-26 08:36:00,59.6,42.0,30.30,North,355,2.0,5.0,52,0.00,,---,0.00,VWS V14.01,2013-05-26 12:36:00,
2013-05-26 08:41:00,59.5,41.9,30.29,North,360,0.0,5.0,52,0.00,,---,0.00,VWS V14.01,2013-05-26 12:41:00,
2013-05-26 08:46:00,59.5,42.4,30.30,North,360,0.0,5.0,53,0.00,,---,0.00,VWS V14.01,2013-05-26 12:46:00,
2013-05-26 08:51:00,59.4,43.2,30.30,North,355,3.0,5.0,55,0.00,,---,0.00,VWS V14.01,2013-05-26 12:51:00,
2013-05-26 08:56:00,59.4,42.8,30.30,NW,320,0.0,5.0,54,0.00,,---,0.00,VWS V14.01,2013-05-26 12:56:00,
2013-05-26 09:00:00,59.5,44.3,30.31,NW,304,0.0,5.0,57,0.00,,---,0.00,VWS V14.01,2013-05-26 13:00:00,
2013-05-26 09:01:00,59.6,42.5,30.30,WNW,303,0.0,0.0,53,0.00,,---,0.00,VWS V14.01,2013-05-26 13:01:00,
2013-05-26 09:06:00,59.9,42.7,30.30,NW,304,0.0,0.0,53,0.00,,---,0.00,VWS V14.01,2013-05-26 13:06:00,
2013-05-26 09:11:00,60.1,41.9,30.30,West,278,0.0,0.0,51,0.00,,---,0.00,VWS V14.01,2013-05-26 13:11:00,
2013-05-26 09:16:00,60.3,41.6,30.30,WNW,285,0.0,1.0,50,0.00,,---,0.00,VWS V14.01,2013-05-26 13:16:00,
2013-05-26 09:21:00,60.6,42.4,30.30,WNW,284,0.0,1.0,51,0.00,,---,0.00,VWS V14.01,2013-05-26 13:21:00,
2013-05-26 09:26:00,60.9,43.2,30.30,NW,304,0.0,1.0,52,0.00,,---,0.00,VWS V14.01,2013-05-26 13:26:00,
2013-05-26 09:30:00,61.1,44.8,30.31,NW,304,0.0,1.0,55,0.00,,---,0.00,VWS V14.01,2013-05-26 13:30:00,
2013-05-26 09:31:00,61.4,44.1,30.31,North,360,0.0,0.0,53,0.00,,---,0.00,VWS V14.01,2013-05-26 13:31:00,
2013-05-26 09:36:00,61.7,42.4,30.31,NNW,342,0.0,0.0,49,0.00,,---,0.00,VWS V14.01,2013-05-26 13:36:00,
2013-05-26 09:41:00,61.6,41.2,30.31,North,355,0.0,0.0,47,0.00,,---,0.00,VWS V14.01,2013-05-26 13:41:00,
2013-05-26 09:46:00,61.8,43.0,30.31,NW,321,0.0,0.0,50,0.00,,---,0.00,VWS V14.01,2013-05-26 13:46:00,
2013-05-26 09:51:00,61.9,41.5,30.31,NW,304,0.0,1.0,47,0.00,,---,0.00,VWS V14.01,2013-05-26 13:51:00,
2013-05-26 09:56:00,62.2,40.0,30.31,NE,45,0.0,1.0,44,0.00,,---,0.00,VWS V14.01,2013-05-26 13:56:00,
2013-05-26 10:00:00,62.3,41.8,30.31,NE,39,0.0,1.0,47,0.00,,---,0.00,VWS V14.01,2013-05-26 14:00:00,
2013-05-26 10:01:00,62.5,42.6,30.31,North,5,0.0,0.0,48,0.00,,---,0.00,VWS V14.01,2013-05-26 14:01:00,
2013-05-26 10:06:00,62.8,41.7,30.31,NNW,338,0.0,0.0,46,0.00,,---,0.00,VWS V14.01,2013-05-26 14:06:00,
2013-05-26 10:11:00,62.9,39.5,30.31,WNW,303,0.0,0.0,42,0.00,,---,0.00,VWS V14.01,2013-05-26 14:11:00,
2013-05-26 10:16:00,62.9,38.2,30.31,NW,317,0.0,0.0,40,0.00,,---,0.00,VWS V14.01,2013-05-26 14:16:00,
2013-05-26 10:21:00,62.8,40.0,30.30,NW,307,0.0,0.0,43,0.00,,---,0.00,VWS V14.01,2013-05-26 14:21:00,
2013-05-26 10:26:00,62.9,41.3,30.30,NW,318,0.0,0.0,45,0.00,,---,0.00,VWS V14.01,2013-05-26 14:26:00,
2013-05-26 10:30:00,62.9,41.3,30.30,NW,317,0.0,0.0,45,0.00,,---,0.00,VWS V14.01,2013-05-26 14:30:00,
2013-05-26 10:31:00,63.0,40.8,30.30,NNW,340,0.0,0.0,44,0.00,,---,0.00,VWS V14.01,2013-05-26 14:31:00,
2013-05-26 10:36:00,63.3,39.8,30.30,NNW,340,0.0,1.0,42,0.00,,---,0.00,VWS V14.01,2013-05-26 14:36:00,
2013-05-26 10:41:00,63.5,39.4,30.30,WNW,303,0.0,1.0,41,0.00,,---,0.00,VWS V14.01,2013-05-26 14:41:00,
2013-05-26 10:46:00,63.7,41.4,30.30,NNW,333,0.0,1.0,44,0.00,,---,0.00,VWS V14.01,2013-05-26 14:46:00,
2013-05-26 10:51:00,63.7,39.6,30.30,NW,319,0.0,1.0,41,0.00,,---,0.00,VWS V14.01,2013-05-26 14:51:00,
2013-05-26 10:56:00,63.7,38.3,30.30,NW,321,0.0,1.0,39,0.00,,---,0.00,VWS V14.01,2013-05-26 14:56:00,
2013-05-26 11:00:00,63.7,37.6,30.30,North,355,0.0,1.0,38,0.00,,---,0.00,VWS V14.01,2013-05-26 15:00:00,
2013-05-26 11:01:00,63.8,40.3,30.30,North,360,0.0,0.0,42,0.00,,---,0.00,VWS V14.01,2013-05-26 15:01:00,
2013-05-26 11:06:00,64.1,39.3,30.29,SE,134,0.0,0.0,40,0.00,,---,0.00,VWS V14.01,2013-05-26 15:06:00,
2013-05-26 11:11:00,64.2,40.0,30.29,NNW,346,0.0,0.0,41,0.00,,---,0.00,VWS V14.01,2013-05-26 15:11:00,
2013-05-26 11:16:00,64.6,41.0,30.30,NE,46,0.0,0.0,42,0.00,,---,0.00,VWS V14.01,2013-05-26 15:16:00,
2013-05-26 11:21:00,65.0,40.8,30.29,NW,313,0.0,0.0,41,0.00,,---,0.00,VWS V14.01,2013-05-26 15:21:00,
2013-05-26 11:26:00,65.5,41.2,30.29,NW,315,0.0,0.0,41,0.00,,---,0.00,VWS V14.01,2013-05-26 15:26:00,
2013-05-26 11:30:00,65.7,43.8,30.29,NNW,327,0.0,0.0,45,0.00,,---,0.00,VWS V14.01,2013-05-26 15:30:00,
2013-05-26 11:31:00,65.8,42.1,30.29,NW,309,0.0,0.0,42,0.00,,---,0.00,VWS V14.01,2013-05-26 15:31:00,
2013-05-26 11:36:00,65.9,41.6,30.29,ENE,67,0.0,0.0,41,0.00,,---,0.00,VWS V14.01,2013-05-26 15:36:00,
2013-05-26 11:41:00,66.0,41.0,30.29,West,270,0.0,0.0,40,0.00,,---,0.00,VWS V14.01,2013-05-26 15:41:00,
2013-05-26 11:46:00,66.0,41.0,30.29,NW,310,0.0,0.0,40,0.00,,---,0.00,VWS V14.01,2013-05-26 15:46:00,
2013-05-26 11:51:00,65.9,40.3,30.29,SSW,208,0.0,0.0,39,0.00,,---,0.00,VWS V14.01,2013-05-26 15:51:00,
2013-05-26 11:56:00,66.1,41.1,30.29,North,360,0.0,0.0,40,0.00,,---,0.00,VWS V14.01,2013-05-26 15:56:00,
2013-05-26 12:00:00,66.2,40.5,30.29,NE,43,0.0,0.0,39,0.00,,---,0.00,VWS V14.01,2013-05-26 16:00:00,
2013-05-26 12:01:00,66.3,43.2,30.29,NE,44,0.0,0.0,43,0.00,,---,0.00,VWS V14.01,2013-05-26 16:01:00,
2013-05-26 12:06:00,66.4,40.7,30.29,ENE,65,0.0,0.0,39,0.00,,---,0.00,VWS V14.01,2013-05-26 16:06:00,
2013-05-26 12:11:00,66.8,41.7,30.29,NE,56,0.0,0.0,40,0.00,,---,0.00,VWS V14.01,2013-05-26 16:11:00,
2013-05-26 12:16:00,67.0,43.2,30.29,NE,50,0.0,0.0,42,0.00,,---,0.00,VWS V14.01,2013-05-26 16:16:00,
2013-05-26 12:21:00,67.1,40.7,30.29,NW,310,0.0,0.0,38,0.00,,---,0.00,VWS V14.01,2013-05-26 16:21:00,
2013-05-26 12:26:00,67.0,42.5,30.29,NNW,348,0.0,0.0,41,0.00,,---,0.00,VWS V14.01,2013-05-26 16:26:00,
2013-05-26 12:30:00,67.1,43.9,30.28,NW,312,0.0,0.0,43,0.00,,---,0.00,VWS V14.01,2013-05-26 16:30:00,
2013-05-26 12:31:00,67.2,42.1,30.29,NNE,23,0.0,0.0,40,0.00,,---,0.00,VWS V14.01,2013-05-26 16:31:00,
2013-05-26 12:36:00,67.2,40.1,30.28,NW,312,0.0,0.0,37,0.00,,---,0.00,VWS V14.01,2013-05-26 16:36:00,
2013-05-26 12:41:00,67.2,42.1,30.28,NNW,344,0.0,0.0,40,0.00,,---,0.00,VWS V14.01,2013-05-26 16:41:00,
2013-05-26 12:46:00,67.5,39.6,30.28,NNW,342,0.0,0.0,36,0.00,,---,0.00,VWS V14.01,2013-05-26 16:46:00,
2013-05-26 12:51:00,67.5,41.7,30.28,North,5,0.0,0.0,39,0.00,,---,0.00,VWS V14.01,2013-05-26 16:51:00,
2013-05-26 12:56:00,67.7,41.2,30.27,North,5,0.0,0.0,38,0.00,,---,0.00,VWS V14.01,2013-05-26 16:56:00,
2013-05-26 13:00:00,68.0,44.1,30.27,North,5,0.0,0.0,42,0.00,,---,0.00,VWS V14.01,2013-05-26 17:00:00,
2013-05-26 13:01:00,68.1,42.2,30.26,NNE,28,0.0,0.0,39,0.00,,---,0.00,VWS V14.01,2013-05-26 17:01:00,
2013-05-26 13:06:00,68.5,41.2,30.26,NNW,344,0.0,0.0,37,0.00,,---,0.00,VWS V14.01,2013-05-26 17:06:00,
2013-05-26 13:11:00,69.0,43.7,30.26,South,177,0.0,0.0,40,0.00,,---,0.00,VWS V14.01,2013-05-26 17:11:00,
2013-05-26 13:16:00,69.6,40.8,30.25,NW,316,0.0,0.0,35,0.00,,---,0.00,VWS V14.01,2013-05-26 17:16:00,
2013-05-26 13:21:00,69.8,40.2,30.25,NW,306,0.0,0.0,34,0.00,,---,0.00,VWS V14.01,2013-05-26 17:21:00,
2013-05-26 13:26:00,69.9,39.5,30.25,South,189,0.0,0.0,33,0.00,,---,0.00,VWS V14.01,2013-05-26 17:26:00,
2013-05-26 13:30:00,70.0,40.4,30.25,WNW,298,0.0,0.0,34,0.00,,---,0.00,VWS V14.01,2013-05-26 17:30:00,
2013-05-26 13:31:00,70.1,40.5,30.25,West,269,0.0,0.0,34,0.00,,---,0.00,VWS V14.01,2013-05-26 17:31:00,
2013-05-26 13:36:00,70.2,40.5,30.25,WNW,297,0.0,0.0,34,0.00,,---,0.00,VWS V14.01,2013-05-26 17:36:00,
2013-05-26 13:41:00,69.9,38.7,30.25,North,355,0.0,0.0,32,0.00,,---,0.00,VWS V14.01,2013-05-26 17:41:00,
2013-05-26 13:46:00,69.9,39.5,30.24,NE,51,0.0,0.0,33,0.00,,---,0.00,VWS V14.01,2013-05-26 17:46:00,
2013-05-26 13:51:00,70.1,41.2,30.24,NNW,333,0.0,0.0,35,0.00,,---,0.00,VWS V14.01,2013-05-26 17:51:00,
2013-05-26 13:56:00,70.2,39.8,30.24,West,273,0.0,0.0,33,0.00,,---,0.00,VWS V14.01,2013-05-26 17:56:00,
2013-05-26 14:00:00,70.3,40.6,30.24,North,355,0.0,0.0,34,0.00,,---,0.00,VWS V14.01,2013-05-26 18:00:00,
2013-05-26 14:01:00,70.4,40.7,30.23,SSE,164,0.0,0.0,34,0.00,,---,0.00,VWS V14.01,2013-05-26 18:01:00,
2013-05-26 14:06:00,70.6,40.9,30.24,WNW,295,0.0,0.0,34,0.00,,---,0.00,VWS V14.01,2013-05-26 18:06:00,
2013-05-26 14:11:00,70.6,40.9,30.23,NNE,27,0.0,0.0,34,0.00,,---,0.00,VWS V14.01,2013-05-26 18:11:00,
2013-05-26 14:16:00,70.7,41.7,30.24,WNW,286,0.0,0.0,35,0.00,,---,0.00,VWS V14.01,2013-05-26 18:16:00,
2013-05-26 14:21:00,71.0,38.9,30.24,North,5,0.0,0.0,31,0.00,,---,0.00,VWS V14.01,2013-05-26 18:21:00,
2013-05-26 14:26:00,71.2,41.4,30.24,NNE,22,0.0,0.0,34,0.00,,---,0.00,VWS V14.01,2013-05-26 18:26:00,
2013-05-26 14:30:00,71.3,43.0,30.24,NW,309,0.0,0.0,36,0.00,,---,0.00,VWS V14.01,2013-05-26 18:30:00,
2013-05-26 14:31:00,71.4,41.6,30.23,West,278,0.0,0.0,34,0.00,,---,0.00,VWS V14.01,2013-05-26 18:31:00,
2013-05-26 14:36:00,71.4,41.6,30.23,WNW,294,0.0,0.0,34,0.00,,---,0.00,VWS V14.01,2013-05-26 18:36:00,
2013-05-26 14:41:00,71.6,42.5,30.24,WNW,294,0.0,0.0,35,0.00,,---,0.00,VWS V14.01,2013-05-26 18:41:00,
2013-05-26 14:46:00,71.7,38.6,30.24,NW,318,0.0,0.0,30,0.00,,---,0.00,VWS V14.01,2013-05-26 18:46:00,
2013-05-26 14:51:00,71.9,42.0,30.23,NW,313,0.0,0.0,34,0.00,,---,0.00,VWS V14.01,2013-05-26 18:51:00,
2013-05-26 14:56:00,72.1,40.7,30.23,WNW,283,0.0,0.0,32,0.00,,---,0.00,VWS V14.01,2013-05-26 18:56:00,
2013-05-26 15:00:00,72.1,36.3,30.23,NW,321,0.0,0.0,27,0.00,,---,0.00,VWS V14.01,2013-05-26 19:00:00,
2013-05-26 15:01:00,72.2,41.5,30.23,NW,321,0.0,0.0,33,0.00,,---,0.00,VWS V14.01,2013-05-26 19:01:00,
2013-05-26 15:06:00,72.5,40.2,30.23,NNW,333,0.0,0.0,31,0.00,,---,0.00,VWS V14.01,2013-05-26 19:06:00,
2013-05-26 15:11:00,72.4,39.2,30.23,NNE,17,0.0,0.0,30,0.00,,---,0.00,VWS V14.01,2013-05-26 19:11:00,
2013-05-26 15:16:00,72.5,40.2,30.22,West,274,0.0,0.0,31,0.00,,---,0.00,VWS V14.01,2013-05-26 19:16:00,
2013-05-26 15:21:00,72.6,37.7,30.23,NNW,335,0.0,0.0,28,0.00,,---,0.00,VWS V14.01,2013-05-26 19:21:00,
2013-05-26 15:26:00,72.6,41.9,30.22,North,355,0.0,0.0,33,0.00,,---,0.00,VWS V14.01,2013-05-26 19:26:00,
2013-05-26 15:30:00,72.7,38.6,30.22,NNW,348,0.0,0.0,29,0.00,,---,0.00,VWS V14.01,2013-05-26 19:30:00,
2013-05-26 15:31:00,72.6,39.4,30.22,NNW,347,0.0,0.0,30,0.00,,---,0.00,VWS V14.01,2013-05-26 19:31:00,
2013-05-26 15:36:00,72.7,38.6,30.22,WSW,257,0.0,0.0,29,0.00,,---,0.00,VWS V14.01,2013-05-26 19:36:00,
2013-05-26 15:41:00,72.6,38.5,30.21,West,274,0.0,0.0,29,0.00,,---,0.00,VWS V14.01,2013-05-26 19:41:00,
2013-05-26 15:46:00,72.6,36.7,30.21,WNW,299,0.0,0.0,27,0.00,,---,0.00,VWS V14.01,2013-05-26 19:46:00,
2013-05-26 15:51:00,72.8,40.4,30.21,North,355,0.0,0.0,31,0.00,,---,0.00,VWS V14.01,2013-05-26 19:51:00,
2013-05-26 15:56:00,72.9,37.9,30.21,North,355,0.0,0.0,28,0.00,,---,0.00,VWS V14.01,2013-05-26 19:56:00,
2013-05-26 16:00:00,72.9,38.8,30.21,NW,325,0.0,0.0,29,0.00,,---,0.00,VWS V14.01,2013-05-26 20:00:00,
2013-05-26 16:01:00,73.0,38.9,30.21,NW,326,0.0,0.0,29,0.00,,---,0.00,VWS V14.01,2013-05-26 20:01:00,
2013-05-26 16:06:00,73.2,39.1,30.21,NNE,13,0.0,0.0,29,0.00,,---,0.00,VWS V14.01,2013-05-26 20:06:00,
2013-05-26 16:11:00,73.3,39.2,30.21,NW,313,0.0,0.0,29,0.00,,---,0.00,VWS V14.01,2013-05-26 20:11:00,
2013-05-26 16:16:00,73.1,38.1,30.20,WNW,296,0.0,0.0,28,0.00,,---,0.00,VWS V14.01,2013-05-26 20:16:00,
2013-05-26 16:21:00,73.3,40.0,30.21,NW,313,0.0,0.0,30,0.00,,---,0.00,VWS V14.01,2013-05-26 20:21:00,
2013-05-26 16:26:00,73.6,40.3,30.21,WNW,303,0.0,0.0,30,0.00,,---,0.00,VWS V14.01,2013-05-26 20:26:00,
2013-05-26 16:30:00,73.5,39.3,30.21,NW,311,0.0,0.0,29,0.00,,---,0.00,VWS V14.01,2013-05-26 20:30:00,
2013-05-26 16:31:00,73.5,38.4,30.21,WNW,288,0.0,0.0,28,0.00,,---,0.00,VWS V14.01,2013-05-26 20:31:00,
2013-05-26 16:36:00,73.3,43.3,30.21,North,350,0.0,0.0,34,0.00,,---,0.00,VWS V14.01,2013-05-26 20:36:00,
2013-05-26 16:41:00,73.2,38.2,30.20,NE,41,0.0,0.0,28,0.00,,---,0.00,VWS V14.01,2013-05-26 20:41:00,
2013-05-26 16:46:00,73.2,37.2,30.20,NW,311,0.0,0.0,27,0.00,,---,0.00,VWS V14.01,2013-05-26 20:46:00,
2013-05-26 16:51:00,73.1,39.0,30.20,NNE,25,0.0,0.0,29,0.00,,---,0.00,VWS V14.01,2013-05-26 20:51:00,
2013-05-26 16:56:00,72.9,40.5,30.20,NNW,332,0.0,0.0,31,0.00,,---,0.00,VWS V14.01,2013-05-26 20:56:00,
2013-05-26 17:00:00,72.9,40.5,30.20,NNW,338,0.0,0.0,31,0.00,,---,0.00,VWS V14.01,2013-05-26 21:00:00,
2013-05-26 17:01:00,73.0,41.4,30.20,NNW,333,0.0,0.0,32,0.00,,---,0.00,VWS V14.01,2013-05-26 21:01:00,
2013-05-26 17:06:00,73.2,40.8,30.20,NNW,346,0.0,0.0,31,0.00,,---,0.00,VWS V14.01,2013-05-26 21:06:00,
2013-05-26 17:11:00,73.2,41.6,30.20,NNW,338,0.0,0.0,32,0.00,,---,0.00,VWS V14.01,2013-05-26 21:11:00,
2013-05-26 17:16:00,73.2,39.1,30.20,NW,320,0.0,0.0,29,0.00,,---,0.00,VWS V14.01,2013-05-26 21:16:00,
2013-05-26 17:21:00,73.3,41.7,30.20,NNW,333,0.0,0.0,32,0.00,,---,0.00,VWS V14.01,2013-05-26 21:21:00,
2013-05-26 17:26:00,73.5,40.2,30.20,NE,36,0.0,0.0,30,0.00,,---,0.00,VWS V14.01,2013-05-26 21:26:00,
2013-05-26 17:30:00,73.5,40.2,30.20,North,355,0.0,0.0,30,0.00,,---,0.00,VWS V14.01,2013-05-26 21:30:00,
2013-05-26 17:31:00,73.5,40.2,30.20,WNW,302,0.0,0.0,30,0.00,,---,0.00,VWS V14.01,2013-05-26 21:31:00,
2013-05-26 17:36:00,73.4,40.1,30.20,NW,320,0.0,0.0,30,0.00,,---,0.00,VWS V14.01,2013-05-26 21:36:00,
2013-05-26 17:41:00,73.1,39.0,30.20,North,355,0.0,0.0,29,0.00,,---,0.00,VWS V14.01,2013-05-26 21:41:00,
2013-05-26 17:46:00,72.7,40.3,30.20,NNW,340,0.0,0.0,31,0.00,,---,0.00,VWS V14.01,2013-05-26 21:46:00,
2013-05-26 17:51:00,72.5,40.2,30.20,North,5,0.0,0.0,31,0.00,,---,0.00,VWS V14.01,2013-05-26 21:51:00,
2013-05-26 17:56:00,72.4,40.1,30.20,North,360,0.0,0.0,31,0.00,,---,0.00,VWS V14.01,2013-05-26 21:56:00,
2013-05-26 18:00:00,72.5,38.5,30.20,ENE,63,0.0,0.0,29,0.00,,---,0.00,VWS V14.01,2013-05-26 22:00:00,
2013-05-26 18:01:00,72.5,38.5,30.20,NNE,13,0.0,0.0,29,0.00,,---,0.00,VWS V14.01,2013-05-26 22:01:00,
2013-05-26 18:06:00,72.6,39.4,30.20,NNE,17,0.0,0.0,30,0.00,,---,0.00,VWS V14.01,2013-05-26 22:06:00,
2013-05-26 18:11:00,72.7,40.3,30.20,NNW,336,0.0,0.0,31,0.00,,---,0.00,VWS V14.01,2013-05-26 22:11:00,
2013-05-26 18:16:00,72.8,41.3,30.21,NW,311,0.0,0.0,32,0.00,,---,0.00,VWS V14.01,2013-05-26 22:16:00,
2013-05-26 18:21:00,72.9,39.7,30.21,NW,311,0.0,0.0,30,0.00,,---,0.00,VWS V14.01,2013-05-26 22:21:00,
2013-05-26 18:26:00,72.9,40.5,30.21,NW,322,0.0,0.0,31,0.00,,---,0.00,VWS V14.01,2013-05-26 22:26:00,
2013-05-26 18:30:00,72.9,38.8,30.21,NW,324,0.0,0.0,29,0.00,,---,0.00,VWS V14.01,2013-05-26 22:30:00,
2013-05-26 18:31:00,72.8,41.3,30.21,NNW,335,0.0,0.0,32,0.00,,---,0.00,VWS V14.01,2013-05-26 22:31:00,
2013-05-26 18:36:00,72.7,38.6,30.21,NNW,332,0.0,0.0,29,0.00,,---,0.00,VWS V14.01,2013-05-26 22:36:00,
2013-05-26 18:41:00,72.5,41.0,30.21,NNW,331,0.0,0.0,32,0.00,,---,0.00,VWS V14.01,2013-05-26 22:41:00,
2013-05-26 18:46:00,72.2,39.1,30.21,NW,325,0.0,0.0,30,0.00,,---,0.00,VWS V14.01,2013-05-26 22:46:00,
2013-05-26 18:51:00,71.9,41.3,30.21,NNW,336,0.0,0.0,33,0.00,,---,0.00,VWS V14.01,2013-05-26 22:51:00,
2013-05-26 18:56:00,71.7,40.3,30.21,NNW,336,0.0,0.0,32,0.00,,---,0.00,VWS V14.01,2013-05-26 22:56:00,
2013-05-26 19:00:00,71.6,41.0,30.21,NNW,327,0.0,0.0,33,0.00,,---,0.00,VWS V14.01,2013-05-26 23:00:00,
2013-05-26 19:01:00,71.6,40.2,30.21,WNW,303,0.0,0.0,32,0.00,,---,0.00,VWS V14.01,2013-05-26 23:01:00,
2013-05-26 19:06:00,71.6,40.2,30.21,NW,304,0.0,0.0,32,0.00,,---,0.00,VWS V14.01,2013-05-26 23:06:00,
2013-05-26 19:11:00,71.6,41.8,30.21,NW,325,0.0,0.0,34,0.00,,---,0.00,VWS V14.01,2013-05-26 23:11:00,
2013-05-26 19:16:00,71.5,40.9,30.21,NW,319,0.0,0.0,33,0.00,,---,0.00,VWS V14.01,2013-05-26 23:16:00,
2013-05-26 19:21:00,71.3,40.0,30.21,NW,313,0.0,0.0,32,0.00,,---,0.00,VWS V14.01,2013-05-26 23:21:00,
2013-05-26 19:26:00,71.3,41.5,30.21,NW,313,0.0,0.0,34,0.00,,---,0.00,VWS V14.01,2013-05-26 23:26:00,
2013-05-26 19:30:00,71.2,42.2,30.21,NW,313,0.0,0.0,35,0.00,,---,0.00,VWS V14.01,2013-05-26 23:30:00,
2013-05-26 19:31:00,71.2,41.4,30.21,NW,313,0.0,0.0,34,0.00,,---,0.00,VWS V14.01,2013-05-26 23:31:00,
2013-05-26 19:36:00,71.0,40.5,30.21,NW,316,0.0,0.0,33,0.00,,---,0.00,VWS V14.01,2013-05-26 23:36:00,
2013-05-26 19:41:00,70.6,41.7,30.22,NW,316,0.0,0.0,35,0.00,,---,0.00,VWS V14.01,2013-05-26 23:41:00,
2013-05-26 19:46:00,70.1,41.2,30.21,NW,322,0.0,0.0,35,0.00,,---,0.00,VWS V14.01,2013-05-26 23:46:00,
2013-05-26 19:51:00,69.5,41.4,30.22,NW,322,0.0,0.0,36,0.00,,---,0.00,VWS V14.01,2013-05-26 23:51:00,
2013-05-26 19:56:00,69.1,41.0,30.22,NW,322,0.0,1.0,36,0.00,,---,0.00,VWS V14.01,2013-05-26 23:56:00,
2013-05-26 20:00:00,68.8,41.5,30.22,NW,322,0.0,1.0,37,0.00,,---,0.00,VWS V14.01,2013-05-27 00:00:00,
2013-05-26 20:01:00,68.6,41.3,30.22,NW,322,0.0,0.0,37,0.00,,---,0.00,VWS V14.01,2013-05-27 00:01:00,
2013-05-26 20:06:00,68.2,42.3,30.22,NW,322,0.0,0.0,39,0.00,,---,0.00,VWS V14.01,2013-05-27 00:06:00,
2013-05-26 20:11:00,67.6,43.1,30.22,NW,322,0.0,0.0,41,0.00,,---,0.00,VWS V14.01,2013-05-27 00:11:00,
2013-05-26 20:16:00,67.0,43.2,30.22,NW,322,0.0,1.0,42,0.00,,---,0.00,VWS V14.01,2013-05-27 00:16:00,
2013-05-26 20:21:00,66.4,43.2,30.22,NW,322,0.0,1.0,43,0.00,,---,0.00,VWS V14.01,2013-05-27 00:21:00,
2013-05-26 20:26:00,65.8,43.9,30.23,NW,322,0.0,1.0,45,0.00,,---,0.00,VWS V14.01,2013-05-27 00:26:00,
2013-05-26 20:30:00,65.5,42.4,30.23,NW,322,0.0,1.0,43,0.00,,---,0.00,VWS V14.01,2013-05-27 00:30:00,
2013-05-26 20:31:00,65.3,42.2,30.23,NW,322,0.0,0.0,43,0.00,,---,0.00,VWS V14.01,2013-05-27 00:31:00,
2013-05-26 20:36:00,65.0,42.6,30.23,NW,322,0.0,0.0,44,0.00,,---,0.00,VWS V14.01,2013-05-27 00:36:00,
2013-05-26 20:41:00,64.6,42.2,30.23,NW,322,0.0,0.0,44,0.00,,---,0.00,VWS V14.01,2013-05-27 00:41:00,
2013-05-26 20:46:00,64.2,41.8,30.23,NW,322,0.0,0.0,44,0.00,,---,0.00,VWS V14.01,2013-05-27 00:46:00,
2013-05-26 20:51:00,63.9,42.2,30.23,NW,322,0.0,0.0,45,0.00,,---,0.00,VWS V14.01,2013-05-27 00:51:00,
2013-05-26 20:56:00,63.6,41.9,30.23,NW,322,0.0,0.0,45,0.00,,---,0.00,VWS V14.01,2013-05-27 00:56:00,
2013-05-26 21:00:00,63.5,42.9,30.23,NW,322,0.0,0.0,47,0.00,,---,0.00,VWS V14.01,2013-05-27 01:00:00,
2013-05-26 21:01:00,63.5,42.9,30.23,NW,322,0.0,0.0,47,0.00,,---,0.00,VWS V14.01,2013-05-27 01:01:00,
2013-05-26 21:06:00,63.2,42.1,30.23,NW,322,0.0,0.0,46,0.00,,---,0.00,VWS V14.01,2013-05-27 01:06:00,
2013-05-26 21:10:00,63.1,43.7,30.23,NW,322,0.0,2.0,49,0.00,,---,0.00,VWS V14.01,2013-05-27 01:10:00,
2013-05-26 21:15:00,62.8,44.9,30.23,NW,322,0.0,2.0,52,0.00,,---,0.00,VWS V14.01,2013-05-27 01:15:00,
2013-05-26 21:20:00,62.3,44.5,30.24,NW,322,0.0,2.0,52,0.00,,---,0.00,VWS V14.01,2013-05-27 01:20:00,
2013-05-26 21:25:00,61.8,43.0,30.24,NW,322,0.0,2.0,50,0.00,,---,0.00,VWS V14.01,2013-05-27 01:25:00,
2013-05-26 21:30:00,61.7,41.8,30.24,NW,322,3.0,3.0,48,0.00,,---,0.00,VWS V14.01,2013-05-27 01:30:00,
2013-05-26 21:35:00,61.8,43.5,30.24,NW,322,0.0,4.0,51,0.00,,---,0.00,VWS V14.01,2013-05-27 01:35:00,
2013-05-26 21:40:00,62.1,42.2,30.24,NW,322,0.0,4.0,48,0.00,,---,0.00,VWS V14.01,2013-05-27 01:40:00,
2013-05-26 21:45:00,62.2,44.4,30.24,NW,322,0.0,5.0,52,0.00,,---,0.00,VWS V14.01,2013-05-27 01:45:00,
2013-05-26 21:50:00,61.8,43.0,30.24,NW,322,0.0,5.0,50,0.00,,---,0.00,VWS V14.01,2013-05-27 01:50:00,
2013-05-26 21:55:00,61.3,43.0,30.25,NW,322,0.0,5.0,51,0.00,,---,0.00,VWS V14.01,2013-05-27 01:55:00,
2013-05-26 22:00:00,60.8,44.5,30.25,NW,322,0.0,0.0,55,0.00,,---,0.00,VWS V14.01,2013-05-27 02:00:00,
2013-05-26 22:05:00,60.0,45.2,30.25,NW,322,0.0,3.0,58,0.00,,---,0.00,VWS V14.01,2013-05-27 02:05:00,
2013-05-26 22:10:00,59.1,45.2,30.25,NW,322,1.0,4.0,60,0.00,,---,0.00,VWS V14.01,2013-05-27 02:10:00,
2013-05-26 22:15:00,58.5,44.2,30.26,NW,322,2.0,4.0,59,0.00,,---,0.00,VWS V14.01,2013-05-27 02:15:00,
2013-05-26 22:20:00,58.2,45.3,30.25,NW,322,0.0,4.0,62,0.00,,---,0.00,VWS V14.01,2013-05-27 02:20:00,
2013-05-26 22:25:00,58.2,43.5,30.26,NW,322,3.0,5.0,58,0.00,,---,0.00,VWS V14.01,2013-05-27 02:25:00,
2013-05-26 22:30:00,58.2,44.4,30.25,NW,322,0.0,4.0,60,0.00,,---,0.00,VWS V14.01,2013-05-27 02:30:00,
2013-05-26 22:35:00,58.0,45.5,30.26,NW,322,0.0,4.0,63,0.00,,---,0.00,VWS V14.01,2013-05-27 02:35:00,
2013-05-26 22:40:00,57.6,45.1,30.25,NW,304,1.0,6.0,63,0.00,,---,0.00,VWS V14.01,2013-05-27 02:40:00,
2013-05-26 22:45:00,57.3,45.2,30.25,NW,306,1.0,6.0,64,0.00,,---,0.00,VWS V14.01,2013-05-27 02:45:00,
2013-05-26 22:50:00,57.0,44.5,30.26,NW,306,0.0,6.0,63,0.00,,---,0.00,VWS V14.01,2013-05-27 02:50:00,
2013-05-26 22:55:00,56.9,43.6,30.26,NW,306,0.0,6.0,61,0.00,,---,0.00,VWS V14.01,2013-05-27 02:55:00,
2013-05-26 23:00:00,56.9,45.3,30.26,NW,306,0.0,0.0,65,0.00,,---,0.00,VWS V14.01,2013-05-27 03:00:00,
2013-05-26 23:05:00,56.6,45.0,30.26,NW,306,0.0,0.0,65,0.00,,---,0.00,VWS V14.01,2013-05-27 03:05:00,
2013-05-26 23:10:00,56.3,44.3,30.26,NW,306,0.0,1.0,64,0.00,,---,0.00,VWS V14.01,2013-05-27 03:10:00,
2013-05-26 23:15:00,56.0,45.6,30.26,NW,306,0.0,1.0,68,0.00,,---,0.00,VWS V14.01,2013-05-27 03:15:00,
2013-05-26 23:20:00,55.6,45.2,30.26,WNW,288,3.0,4.0,68,0.00,,---,0.00,VWS V14.01,2013-05-27 03:20:00,
2013-05-26 23:25:00,55.4,45.0,30.26,West,277,0.0,4.0,68,0.00,,---,0.00,VWS V14.01,2013-05-27 03:25:00,
2013-05-26 23:30:00,55.3,45.7,30.26,SSW,200,0.0,0.0,70,0.00,,---,0.00,VWS V14.01,2013-05-27 03:30:00,
2013-05-26 23:35:00,55.1,45.1,30.26,SSW,200,0.0,0.0,69,0.00,,---,0.00,VWS V14.01,2013-05-27 03:35:00,
2013-05-26 23:40:00,54.8,45.6,30.26,SSW,200,0.0,0.0,71,0.00,,---,0.00,VWS V14.01,2013-05-27 03:40:00,
2013-05-26 23:45:00,54.4,45.6,30.27,SSW,200,2.0,3.0,72,0.00,,---,0.00,VWS V14.01,2013-05-27 03:45:00,
2013-05-26 23:50:00,54.0,45.5,30.27,SSW,200,0.0,3.0,73,0.00,,---,0.00,VWS V14.01,2013-05-27 03:50:00,
2013-05-26 23:55:00,53.6,45.2,30.27,SSW,200,0.0,3.0,73,0.00,,---,0.00,VWS V14.01,2013-05-27 03:55:00,